Time;durP1;ratioP1;P1;durP2;ratioP2;P2;SDS_P1;SDS_P2;PMS_P1;PMS_P2;Temp;Humidity;BMP_temperature;BMP_pressure;BME280_temperature;BME280_humidity;BME280_pressure;Samples;Min_cycle;Max_cycle;Signal;HPM_P1;HPM_P2
2021/04/11 00:02:15;;;;;;;22.50;6.10;;;;;;;5.31;43.92;94480.66;5091724;28;20059;-71
2021/04/11 00:04:41;;;;;;;13.05;5.85;;;;;;;5.23;43.92;94481.16;5060727;28;20510;-71
2021/04/11 00:07:06;;;;;;;16.60;5.55;;;;;;;5.24;43.88;94477.47;5091435;28;20020;-71
2021/04/11 00:09:32;;;;;;;13.07;5.80;;;;;;;5.23;44.23;94487.28;5062244;28;20020;-71
2021/04/11 00:11:58;;;;;;;11.82;5.57;;;;;;;5.26;43.80;94491.22;5091619;28;20457;-70
2021/04/11 00:14:24;;;;;;;18.17;7.20;;;;;;;5.26;43.95;94482.50;5064979;28;20031;-71
2021/04/11 00:16:50;;;;;;;14.80;6.15;;;;;;;5.26;44.10;94490.44;5066464;28;20043;-72
2021/04/11 00:19:15;;;;;;;14.25;6.40;;;;;;;5.15;44.81;94482.50;5091342;28;20495;-72
2021/04/11 00:21:40;;;;;;;20.00;6.05;;;;;;;5.20;44.63;94481.72;5063596;28;20016;-71
2021/04/11 00:24:06;;;;;;;20.02;6.45;;;;;;;5.23;44.67;94486.44;5066375;28;20023;-71
2021/04/11 00:26:31;;;;;;;17.13;7.15;;;;;;;5.20;45.89;94482.50;5091195;28;20028;-71
2021/04/11 00:28:57;;;;;;;13.57;7.00;;;;;;;5.28;45.52;94486.47;5071674;28;20115;-70
2021/04/11 00:31:22;;;;;;;13.32;6.40;;;;;;;5.34;44.72;94485.41;5091261;28;20032;-71
2021/04/11 00:33:48;;;;;;;14.40;6.50;;;;;;;5.29;45.11;94476.69;5091124;28;20024;-71
2021/04/11 00:36:17;;;;;;;13.30;6.45;;;;;;;5.21;45.29;94484.09;5066051;28;20084;-71
2021/04/11 00:38:44;;;;;;;14.25;5.03;;;;;;;5.26;44.80;94483.31;5090986;28;20016;-71
2021/04/11 00:41:19;;;;;;;19.20;5.97;;;;;;;5.23;45.21;94492.56;5091078;28;20048;-71
2021/04/11 00:43:46;;;;;;;15.57;5.38;;;;;;;5.32;44.80;94494.66;5091100;28;20024;-71
2021/04/11 00:46:22;;;;;;;13.82;5.07;;;;;;;5.30;44.71;94484.34;5055813;28;20430;-71
2021/04/11 00:48:48;;;;;;;15.27;5.38;;;;;;;5.35;44.73;94494.94;5064316;28;20142;-71
2021/04/11 00:51:23;;;;;;;11.77;5.07;;;;;;;5.37;44.83;94492.00;5091013;28;20547;-72
2021/04/11 00:53:48;;;;;;;19.08;5.03;;;;;;;5.24;45.67;94493.34;5090724;28;20572;-71
2021/04/11 00:56:16;;;;;;;13.93;5.00;;;;;;;5.18;45.87;94497.03;5061544;28;20054;-71
2021/04/11 00:58:41;;;;;;;11.02;4.80;;;;;;;5.10;46.17;94487.00;5090754;28;20034;-71
2021/04/11 01:01:07;;;;;;;11.93;5.35;;;;;;;5.08;46.69;94489.09;5091100;28;20024;-71
2021/04/11 01:03:36;;;;;;;15.70;4.60;;;;;;;5.07;46.77;94493.59;5061507;28;20100;-70
2021/04/11 01:06:05;;;;;;;16.63;6.78;;;;;;;5.05;46.97;94493.06;5090460;28;20026;-71
2021/04/11 01:08:33;;;;;;;33.42;12.20;;;;;;;4.99;47.21;94494.13;5072132;28;20024;-71
2021/04/11 01:11:04;;;;;;;18.83;8.30;;;;;;;4.92;47.25;94488.28;5069279;28;20020;-70
2021/04/11 01:13:32;;;;;;;14.50;6.43;;;;;;;4.87;47.96;94493.56;5090388;28;20081;-71
2021/04/11 01:15:59;;;;;;;10.85;4.68;;;;;;;4.91;46.80;94492.00;5066619;28;20040;-71
2021/04/11 01:18:25;;;;;;;11.02;4.38;;;;;;;4.83;46.53;94488.00;5090544;28;20387;-70
2021/04/11 01:20:52;;;;;;;9.40;4.55;;;;;;;4.78;46.00;94491.44;5060791;28;20090;-70
2021/04/11 01:23:31;;;;;;;10.10;4.30;;;;;;;4.85;45.51;94490.41;5090185;28;20028;-71
2021/04/11 01:25:59;;;;;;;16.33;4.30;;;;;;;4.86;45.55;94491.97;5062651;28;20028;-71
2021/04/11 01:28:31;;;;;;;12.95;4.70;;;;;;;4.90;45.92;94485.09;5065166;28;20047;-70
2021/04/11 01:31:05;;;;;;;8.18;3.65;;;;;;;4.87;45.70;94489.06;5090229;28;20031;-70
2021/04/11 01:33:32;;;;;;;8.95;3.42;;;;;;;4.87;45.58;94493.56;5089955;28;20032;-71
2021/04/11 01:35:59;;;;;;;7.82;3.80;;;;;;;4.74;46.60;94492.19;5090112;28;20453;-70
2021/04/11 01:38:26;;;;;;;7.80;3.63;;;;;;;4.72;47.27;94494.31;5090350;28;20094;-70
2021/04/11 01:41:12;;;;;;;9.10;3.85;;;;;;;4.71;46.90;94500.66;5057691;28;20043;-70
2021/04/11 01:43:39;;;;;;;10.55;4.13;;;;;;;4.66;47.07;94503.25;5059330;28;20122;-71
2021/04/11 01:46:09;;;;;;;10.75;3.78;;;;;;;4.58;47.55;94501.91;5059121;28;20034;-71
2021/04/11 01:48:34;;;;;;;7.82;3.38;;;;;;;4.58;47.19;94508.00;5066424;28;20032;-71
2021/04/11 01:51:02;;;;;;;10.93;3.92;;;;;;;4.65;46.13;94504.34;5071474;28;20093;-71
2021/04/11 01:53:27;;;;;;;13.55;4.90;;;;;;;4.60;45.44;94499.84;5066588;28;20035;-71
2021/04/11 01:55:55;;;;;;;12.68;4.65;;;;;;;4.49;47.09;94506.13;5090136;28;20500;-71
2021/04/11 01:58:21;;;;;;;10.90;4.00;;;;;;;4.44;47.21;94501.63;5067680;28;20052;-72
2021/04/11 02:00:50;;;;;;;11.70;3.90;;;;;;;4.46;47.45;94507.44;5057889;28;20149;-71
2021/04/11 02:03:18;;;;;;;12.43;5.25;;;;;;;4.48;48.64;94510.63;5064821;28;20035;-71
2021/04/11 02:05:46;;;;;;;9.68;4.40;;;;;;;4.49;49.08;94504.28;5089847;28;20403;-72
2021/04/11 02:08:17;;;;;;;11.02;4.18;;;;;;;4.42;48.52;94507.16;5089595;28;20055;-71
2021/04/11 02:10:46;;;;;;;10.60;4.05;;;;;;;4.37;48.43;94498.41;5060299;28;20027;-71
2021/04/11 02:13:14;;;;;;;7.28;4.00;;;;;;;4.38;48.10;94500.03;5060411;28;20391;-72
2021/04/11 02:15:43;;;;;;;13.23;3.97;;;;;;;4.30;48.69;94500.50;5057752;28;20047;-72
2021/04/11 02:18:11;;;;;;;9.60;3.67;;;;;;;4.27;48.60;94503.66;5085140;28;20128;-72
2021/04/11 02:20:37;;;;;;;10.00;3.83;;;;;;;4.24;48.67;94494.41;5081770;28;20039;-71
2021/04/11 02:23:04;;;;;;;8.35;3.58;;;;;;;4.14;48.62;94495.16;5064313;28;20036;-70
2021/04/11 02:25:39;;;;;;;8.63;4.22;;;;;;;4.09;48.89;94497.78;5089119;28;20024;-71
2021/04/11 02:28:05;;;;;;;11.77;4.82;;;;;;;4.09;49.50;94489.88;5089512;28;20105;-71
2021/04/11 02:30:31;;;;;;;11.60;4.32;;;;;;;4.05;49.41;94482.69;5089346;28;20032;-71
2021/04/11 02:32:57;;;;;;;10.88;4.97;;;;;;;4.05;49.32;94488.78;5062935;28;20112;-70
2021/04/11 02:35:25;;;;;;;9.05;4.22;;;;;;;4.05;49.38;94488.78;5089135;28;20051;-71
2021/04/11 02:37:56;;;;;;;8.23;4.00;;;;;;;4.04;49.22;94489.03;5068478;28;20052;-70
2021/04/11 02:40:31;;;;;;;11.25;5.07;;;;;;;4.04;48.96;94496.97;5088971;28;20040;-70
2021/04/11 02:43:01;;;;;;;10.27;4.38;;;;;;;4.07;48.80;94491.16;5089420;28;20020;-71
2021/04/11 02:45:32;;;;;;;8.20;3.78;;;;;;;4.05;48.56;94493.25;5089241;28;20403;-72
2021/04/11 02:47:58;;;;;;;12.50;4.38;;;;;;;3.98;48.74;94490.84;5089417;28;20039;-70
2021/04/11 02:50:30;;;;;;;11.82;4.50;;;;;;;3.92;49.33;94492.66;5088973;28;20077;-70
2021/04/11 02:53:11;;;;;;;11.57;5.20;;;;;;;3.98;48.99;94489.00;5061269;28;20472;-71
2021/04/11 02:55:40;;;;;;;12.45;5.53;;;;;;;4.00;48.72;94491.38;5089157;28;20024;-70
2021/04/11 02:58:08;;;;;;;14.73;6.55;;;;;;;4.02;48.25;94487.44;5066949;28;20032;-71
2021/04/11 03:00:37;;;;;;;15.48;6.32;;;;;;;4.05;48.64;94491.44;5089075;28;20115;-70
2021/04/11 03:03:03;;;;;;;11.50;5.35;;;;;;;4.08;48.80;94487.47;5069570;28;20142;-71
2021/04/11 03:05:29;;;;;;;17.10;5.93;;;;;;;4.08;49.02;94493.53;5092785;28;20118;-72
2021/04/11 03:08:00;;;;;;;12.93;5.85;;;;;;;4.11;48.84;94497.50;5074604;28;20084;-71
2021/04/11 03:10:33;;;;;;;10.65;4.95;;;;;;;4.05;48.97;94491.44;5092956;28;20096;-71
2021/04/11 03:13:00;;;;;;;16.02;6.68;;;;;;;4.03;49.52;94496.16;5066140;28;20039;-70
2021/04/11 03:15:27;;;;;;;15.27;7.10;;;;;;;4.01;50.05;94493.00;5092584;28;20028;-70
2021/04/11 03:17:54;;;;;;;14.18;6.45;;;;;;;3.81;50.72;94505.00;5101140;28;20043;-71
2021/04/11 03:20:26;;;;;;;12.20;5.82;;;;;;;3.68;51.13;94500.16;5063382;28;20389;-71
2021/04/11 03:22:57;;;;;;;13.27;6.32;;;;;;;3.62;51.20;94495.91;5092329;28;20031;-70
2021/04/11 03:25:23;;;;;;;16.00;7.30;;;;;;;3.58;50.55;94503.53;5092716;28;20403;-71
2021/04/11 03:28:01;;;;;;;19.58;6.97;;;;;;;3.52;50.88;94501.09;5063677;28;20048;-71
2021/04/11 03:30:36;;;;;;;13.80;7.00;;;;;;;3.50;51.02;94497.91;5071724;28;20021;-71
2021/04/11 03:33:06;;;;;;;12.82;7.00;;;;;;;3.50;51.76;94497.91;5070049;28;20103;-72
2021/04/11 03:35:34;;;;;;;16.50;7.32;;;;;;;3.44;51.67;94499.75;5061923;28;20372;-71
2021/04/11 03:38:01;;;;;;;16.30;6.97;;;;;;;3.49;51.35;94505.03;5066691;28;20029;-71
2021/04/11 03:40:31;;;;;;;12.50;5.60;;;;;;;3.47;51.25;94503.72;5065713;28;20097;-72
2021/04/11 03:43:06;;;;;;;13.45;6.15;;;;;;;3.44;51.32;94514.75;5093138;28;20020;-72
2021/04/11 03:45:33;;;;;;;16.35;7.22;;;;;;;3.40;51.67;94504.72;5063480;28;20124;-72
2021/04/11 03:48:03;;;;;;;18.15;8.57;;;;;;;3.33;52.41;94505.97;5092807;28;20516;-71
2021/04/11 03:50:34;;;;;;;15.20;7.20;;;;;;;3.28;52.33;94508.56;5069902;28;20058;-71
2021/04/11 03:53:11;;;;;;;9.95;4.97;;;;;;;3.27;51.90;94525.41;5061517;28;20040;-72
2021/04/11 03:55:41;;;;;;;11.60;5.47;;;;;;;3.24;52.03;94526.72;5092409;28;20028;-72
2021/04/11 03:58:24;;;;;;;14.85;6.82;;;;;;;3.23;51.81;94525.13;5084188;28;20058;-71
2021/04/11 04:00:53;;;;;;;9.20;4.82;;;;;;;3.24;52.57;94537.25;5055237;28;20032;-72
2021/04/11 04:03:23;;;;;;;9.88;4.95;;;;;;;3.24;52.04;94547.81;5071024;28;20036;-72
2021/04/11 04:05:49;;;;;;;16.05;4.80;;;;;;;3.25;51.13;94544.09;5091385;28;20166;-72
2021/04/11 04:08:15;;;;;;;10.90;4.65;;;;;;;3.25;50.53;94553.84;5092015;28;20077;-72
2021/04/11 04:11:31;;;;;;;14.15;5.00;;;;;;;3.31;50.30;94558.13;5091385;28;20502;-70
2021/04/11 04:14:15;;;;;;;14.85;4.80;;;;;;;3.32;50.33;94559.72;4992641;28;20193;-72
2021/04/11 04:17:06;;;;;;;10.25;4.38;;;;;;;3.32;51.15;94554.47;4992994;28;20018;-73
2021/04/11 04:19:35;;;;;;;10.68;4.78;;;;;;;3.35;51.12;94544.19;5055027;28;20040;-73
2021/04/11 04:22:22;;;;;;;16.63;6.18;;;;;;;3.47;51.63;94557.22;5072105;28;20028;-73
2021/04/11 04:25:10;;;;;;;8.68;4.55;;;;;;;3.57;52.67;94567.84;5091395;28;20027;-74
2021/04/11 04:27:51;;;;;;;13.00;5.07;;;;;;;3.69;51.08;94561.63;5070369;28;20415;-72
2021/04/11 04:30:17;;;;;;;10.68;4.45;;;;;;;3.78;50.43;94557.44;5090691;28;20494;-72
2021/04/11 04:33:04;;;;;;;12.18;6.20;;;;;;;3.91;49.60;94566.75;5060894;28;20036;-72
2021/04/11 04:36:01;;;;;;;12.63;5.63;;;;;;;4.00;49.11;94562.63;5091352;28;20020;-72
2021/04/11 04:38:36;;;;;;;14.73;6.32;;;;;;;4.05;49.46;94562.66;5047775;28;20040;-72
2021/04/11 04:41:20;;;;;;;13.60;6.78;;;;;;;4.06;49.86;94563.44;5092024;28;20353;-72
2021/04/11 04:44:02;;;;;;;17.00;6.07;;;;;;;4.07;49.68;94565.84;5068997;28;20055;-72
2021/04/11 04:46:45;;;;;;;13.38;5.28;;;;;;;4.11;49.87;94572.19;5069144;28;20115;-72
2021/04/11 04:49:15;;;;;;;14.70;6.18;;;;;;;4.23;49.66;94569.34;5068250;28;20046;-71
2021/04/11 04:51:47;;;;;;;18.45;6.90;;;;;;;4.32;48.99;94575.72;5057106;28;20074;-71
2021/04/11 04:54:27;;;;;;;17.98;7.20;;;;;;;4.41;49.75;94571.53;5071093;28;20024;-71
2021/04/11 04:57:08;;;;;;;21.75;8.48;;;;;;;4.50;49.37;94566.59;5070564;28;20069;-72
2021/04/11 04:59:42;;;;;;;23.70;8.75;;;;;;;4.54;49.46;94575.59;5070917;28;20111;-71
2021/04/11 05:02:12;;;;;;;17.30;7.07;;;;;;;4.62;48.55;94577.72;5057406;28;20035;-72
2021/04/11 05:04:42;;;;;;;19.00;7.85;;;;;;;4.62;47.98;94582.22;5063561;28;20476;-71
2021/04/11 05:07:13;;;;;;;14.75;6.57;;;;;;;4.74;48.02;94589.91;5059178;28;20497;-72
2021/04/11 05:09:41;;;;;;;18.85;6.80;;;;;;;4.83;47.74;94588.38;5063465;28;20047;-71
2021/04/11 05:12:15;;;;;;;14.15;7.32;;;;;;;4.91;47.51;94595.00;5063012;28;20391;-71
2021/04/11 05:14:52;;;;;;;17.80;6.88;;;;;;;4.92;48.43;94602.66;5070056;28;20086;-71
2021/04/11 05:17:26;;;;;;;16.23;6.80;;;;;;;4.90;47.89;94599.47;5058912;28;20557;-71
2021/04/11 05:19:57;;;;;;;21.70;7.63;;;;;;;4.91;48.02;94595.00;5048130;28;20416;-71
2021/04/11 05:22:25;;;;;;;19.77;8.00;;;;;;;4.93;48.11;94593.69;5059024;28;20776;-71
2021/04/11 05:24:57;;;;;;;15.13;7.50;;;;;;;5.03;47.83;94588.44;5069617;28;20020;-72
2021/04/11 05:27:34;;;;;;;14.63;7.97;;;;;;;5.15;47.54;94592.69;5064432;28;20058;-72
2021/04/11 05:30:37;;;;;;;19.60;8.18;;;;;;;5.23;47.19;94586.88;5063483;28;20041;-72
2021/04/11 05:33:03;;;;;;;18.70;8.55;;;;;;;5.24;47.64;94588.50;5069912;28;20031;-71
2021/04/11 05:35:32;;;;;;;30.20;8.85;;;;;;;5.31;47.52;94585.59;5064377;28;20028;-71
2021/04/11 05:38:07;;;;;;;18.27;8.32;;;;;;;5.37;47.31;94588.00;5066020;28;20028;-71
2021/04/11 05:40:40;;;;;;;21.88;8.60;;;;;;;5.44;47.06;94598.31;5062607;28;20492;-71
2021/04/11 05:43:12;;;;;;;14.35;7.80;;;;;;;5.50;46.57;94591.19;5093916;28;20089;-71
2021/04/11 05:45:44;;;;;;;17.33;8.15;;;;;;;5.51;46.01;94587.47;5069620;28;20405;-71
2021/04/11 05:48:15;;;;;;;14.02;7.07;;;;;;;5.54;46.06;94586.97;5060163;28;20522;-71
2021/04/11 05:51:01;;;;;;;20.17;8.82;;;;;;;5.54;46.69;94586.97;5057345;28;20103;-71
2021/04/11 05:53:36;;;;;;;23.33;9.48;;;;;;;5.60;47.25;94591.97;5056151;28;20062;-71
2021/04/11 05:56:06;;;;;;;24.73;9.00;;;;;;;5.65;46.95;94588.53;5056767;28;20024;-71
2021/04/11 05:58:40;;;;;;;17.80;8.98;;;;;;;5.74;47.19;94584.31;5064662;28;20484;-71
2021/04/11 06:01:14;;;;;;;20.73;8.35;;;;;;;5.79;47.64;94594.09;5062699;28;20024;-70
2021/04/11 06:03:47;;;;;;;23.40;9.48;;;;;;;5.76;47.74;94595.44;5061849;28;20156;-71
2021/04/11 06:06:21;;;;;;;23.25;8.57;;;;;;;5.77;47.74;94591.72;5060926;28;20025;-72
2021/04/11 06:08:52;;;;;;;22.60;8.60;;;;;;;5.87;47.64;94590.16;5069208;28;20020;-72
2021/04/11 06:11:30;;;;;;;23.53;9.27;;;;;;;5.94;47.29;94585.38;5067711;28;20030;-72
2021/04/11 06:14:06;;;;;;;18.67;8.57;;;;;;;5.96;47.14;94585.91;5068869;28;20032;-72
2021/04/11 06:16:33;;;;;;;18.15;8.82;;;;;;;6.07;46.97;94592.81;5053733;28;20039;-72
2021/04/11 06:19:01;;;;;;;19.67;8.90;;;;;;;6.13;46.64;94585.66;5054925;28;20106;-72
2021/04/11 06:21:38;;;;;;;23.73;9.07;;;;;;;6.28;46.19;94592.78;5068934;28;20028;-72
2021/04/11 06:24:22;;;;;;;19.67;8.20;;;;;;;6.34;46.41;94584.53;5060482;28;20056;-72
2021/04/11 06:27:26;;;;;;;19.45;8.65;;;;;;;6.43;46.52;94588.25;5064792;28;20224;-72
2021/04/11 06:30:14;;;;;;;19.10;8.00;;;;;;;6.59;45.89;94581.06;5066895;28;20146;-75
2021/04/11 06:32:55;;;;;;;21.88;8.95;;;;;;;6.70;45.37;94581.81;5068949;28;20393;-72
2021/04/11 06:35:46;;;;;;;20.00;9.00;;;;;;;6.74;45.25;94582.84;5070505;28;20025;-71
2021/04/11 06:38:15;;;;;;;12.70;7.55;;;;;;;6.79;44.46;94587.34;5072904;28;20024;-71
2021/04/11 06:41:05;;;;;;;22.63;8.00;;;;;;;6.90;43.07;94586.25;5053675;28;20493;-72
2021/04/11 06:43:49;;;;;;;17.02;7.95;;;;;;;7.00;42.75;94583.53;5067202;28;20029;-72
2021/04/11 06:46:36;;;;;;;18.90;7.35;;;;;;;6.98;43.05;94588.31;5069567;28;20052;-72
2021/04/11 06:49:13;;;;;;;18.15;6.93;;;;;;;7.16;42.84;94592.19;5062667;28;20037;-72
2021/04/11 06:51:57;;;;;;;24.55;8.07;;;;;;;7.32;42.01;94586.81;5072240;28;20032;-72
2021/04/11 06:54:45;;;;;;;15.32;7.60;;;;;;;7.37;42.39;94581.50;5065722;28;20028;-72
2021/04/11 06:57:10;;;;;;;18.25;7.65;;;;;;;7.56;42.08;94594.91;5070568;28;20039;-71
2021/04/11 07:00:00;;;;;;;13.88;6.00;;;;;;;7.69;40.12;94596.13;5056889;28;20476;-71
2021/04/11 07:02:47;;;;;;;15.95;6.82;;;;;;;7.78;39.14;94583.88;5072189;28;20464;-71
2021/04/11 07:05:43;;;;;;;13.95;6.32;;;;;;;7.89;39.52;94590.66;5062457;28;20047;-71
2021/04/11 07:09:04;;;;;;;19.10;6.85;;;;;;;7.99;39.54;94601.19;5053877;28;20041;-71
2021/04/11 07:11:52;;;;;;;19.10;6.45;;;;;;;8.04;39.51;94598.53;5025786;28;20045;-72
2021/04/11 07:14:26;;;;;;;18.35;7.50;;;;;;;8.10;38.92;94595.81;5009701;28;20072;-72
2021/04/11 07:17:20;;;;;;;19.90;8.20;;;;;;;8.14;39.87;94605.63;5058674;28;20043;-72
2021/04/11 07:20:09;;;;;;;14.32;7.57;;;;;;;8.26;39.74;94607.09;5071050;28;20024;-71
2021/04/11 07:22:56;;;;;;;21.20;8.35;;;;;;;8.34;39.77;94601.97;5070653;28;20036;-71
2021/04/11 07:25:43;;;;;;;17.48;8.15;;;;;;;8.40;38.89;94600.06;5071372;28;20531;-72
2021/04/11 07:28:30;;;;;;;17.02;7.88;;;;;;;8.41;38.94;94593.72;5071546;28;20457;-72
2021/04/11 07:30:56;;;;;;;22.38;8.45;;;;;;;8.46;38.96;94585.66;5071781;28;20031;-72
2021/04/11 07:33:30;;;;;;;21.63;7.50;;;;;;;8.52;38.75;94584.53;5071418;28;20451;-72
2021/04/11 07:36:17;;;;;;;16.35;8.30;;;;;;;8.63;38.64;94582.59;5071249;28;20469;-72
2021/04/11 07:39:09;;;;;;;22.90;8.07;;;;;;;8.75;38.20;94584.84;5068568;28;20029;-71
2021/04/11 07:42:06;;;;;;;18.63;8.80;;;;;;;8.85;38.12;94590.03;5059686;28;20047;-72
2021/04/11 07:44:59;;;;;;;18.80;8.20;;;;;;;8.98;37.80;94577.94;5070421;28;20581;-71
2021/04/11 07:47:39;;;;;;;17.77;7.78;;;;;;;9.08;38.20;94577.81;5070593;28;20035;-72
2021/04/11 07:50:23;;;;;;;17.73;6.97;;;;;;;9.21;37.59;94576.31;5065873;28;20036;-72
2021/04/11 07:52:51;;;;;;;26.27;7.32;;;;;;;9.29;36.99;94580.97;5068698;28;20040;-72
2021/04/11 07:55:38;;;;;;;26.02;7.32;;;;;;;9.36;36.76;94581.44;5069937;28;20043;-72
2021/04/11 07:58:41;;;;;;;23.75;7.07;;;;;;;9.53;36.39;94575.59;5070532;28;20115;-72
2021/04/11 08:01:34;;;;;;;21.48;7.45;;;;;;;9.61;36.67;94574.16;5057468;28;20561;-72
2021/04/11 08:04:22;;;;;;;15.80;6.95;;;;;;;9.71;36.61;94574.00;5071339;28;20107;-72
2021/04/11 08:07:03;;;;;;;15.43;7.07;;;;;;;9.76;35.67;94570.47;5032605;28;20033;-72
2021/04/11 08:10:21;;;;;;;24.10;7.68;;;;;;;9.91;35.95;94577.41;5071359;28;20514;-72
2021/04/11 08:13:11;;;;;;;17.60;6.45;;;;;;;10.11;36.35;94576.31;5044856;28;20047;-72
2021/04/11 08:16:01;;;;;;;19.88;7.40;;;;;;;10.32;35.89;94587.41;5061212;28;20102;-72
2021/04/11 08:18:48;;;;;;;16.98;6.75;;;;;;;10.43;34.32;94586.19;5050340;28;20039;-73
2021/04/11 08:21:50;;;;;;;14.55;7.50;;;;;;;10.54;34.70;94589.44;5071195;28;20082;-72
2021/04/11 08:24:39;;;;;;;16.10;7.87;;;;;;;10.67;35.52;94593.22;5069701;28;20107;-73
2021/04/11 08:27:37;;;;;;;27.02;9.43;;;;;;;10.73;35.02;94584.03;5065601;28;20029;-73
2021/04/11 08:30:21;;;;;;;24.02;9.05;;;;;;;10.76;35.17;94575.44;5070903;28;20020;-72
2021/04/11 08:33:36;;;;;;;26.95;8.90;;;;;;;10.96;35.17;94571.59;5070661;28;20029;-71
2021/04/11 08:36:30;;;;;;;19.15;7.80;;;;;;;11.12;34.73;94577.41;4992479;28;20026;-72
2021/04/11 08:39:30;;;;;;;22.75;8.43;;;;;;;11.27;34.64;94573.63;5069638;28;20035;-71
2021/04/11 08:42:05;;;;;;;22.67;8.82;;;;;;;11.38;34.88;94564.31;5045421;28;20063;-71
2021/04/11 08:44:42;;;;;;;27.25;8.88;;;;;;;11.53;34.33;94566.63;5070011;28;20051;-72
2021/04/11 08:47:16;;;;;;;22.23;8.90;;;;;;;11.62;34.07;94564.03;5068982;28;20186;-71
2021/04/11 08:50:12;;;;;;;17.85;8.25;;;;;;;11.74;34.33;94558.94;5052430;28;20040;-72
2021/04/11 08:53:06;;;;;;;20.90;7.68;;;;;;;11.90;33.77;94562.06;5095797;28;20072;-70
2021/04/11 08:55:41;;;;;;;17.10;7.60;;;;;;;11.89;33.02;94562.41;5069121;28;20039;-70
2021/04/11 08:58:21;;;;;;;17.10;6.93;;;;;;;11.83;32.50;94554.47;5066063;28;20082;-74
2021/04/11 09:01:10;;;;;;;14.13;6.63;;;;;;;11.91;32.35;94553.00;5069415;28;20107;-71
2021/04/11 09:03:46;;;;;;;23.60;7.10;;;;;;;12.03;32.69;94555.13;5069157;28;20051;-71
2021/04/11 09:06:23;;;;;;;15.07;6.50;;;;;;;12.19;32.43;94550.16;5066824;28;20036;-71
2021/04/11 09:09:01;;;;;;;12.95;5.93;;;;;;;12.35;32.38;94547.88;5061484;28;20052;-71
2021/04/11 09:11:40;;;;;;;15.43;5.60;;;;;;;12.51;32.03;94543.72;5069518;28;20028;-71
2021/04/11 09:14:24;;;;;;;15.73;6.13;;;;;;;12.43;30.94;94536.44;5067870;28;20021;-71
2021/04/11 09:17:04;;;;;;;17.20;5.45;;;;;;;12.59;31.12;94534.94;5069461;28;20020;-71
2021/04/11 09:19:55;;;;;;;13.02;5.43;;;;;;;12.75;30.72;94539.88;5069450;28;20103;-71
2021/04/11 09:22:44;;;;;;;13.13;4.78;;;;;;;12.90;29.78;94536.78;5067750;28;20020;-71
2021/04/11 09:25:18;;;;;;;9.43;4.40;;;;;;;13.01;29.43;94530.03;5050390;28;20519;-71
2021/04/11 09:28:08;;;;;;;14.02;6.00;;;;;;;13.14;29.15;94530.22;5069454;28;20480;-71
2021/04/11 09:30:48;;;;;;;18.00;5.68;;;;;;;13.23;29.56;94528.38;5067975;28;20028;-71
2021/04/11 09:33:33;;;;;;;14.27;4.75;;;;;;;13.29;28.47;94529.81;5067851;28;20047;-71
2021/04/11 09:36:17;;;;;;;9.10;4.25;;;;;;;13.31;26.88;94526.81;5061159;28;20090;-71
2021/04/11 09:38:48;;;;;;;12.82;5.25;;;;;;;13.37;26.52;94529.03;5069081;28;20458;-71
2021/04/11 09:41:53;;;;;;;11.70;4.28;;;;;;;13.41;25.96;94524.63;5080521;28;21098;-71
2021/04/11 09:44:40;;;;;;;15.23;5.75;;;;;;;13.30;26.24;94523.34;5088918;28;20076;-70
2021/04/11 09:47:36;;;;;;;12.80;4.68;;;;;;;13.40;26.52;94515.00;5070980;28;20038;-71
2021/04/11 09:50:08;;;;;;;18.08;4.57;;;;;;;13.54;26.56;94520.22;5071102;28;20135;-71
2021/04/11 09:52:33;;;;;;;14.10;5.37;;;;;;;13.70;25.99;94517.06;5071096;28;20028;-70
2021/04/11 09:55:10;;;;;;;16.40;3.83;;;;;;;13.84;25.56;94507.75;5070909;28;20428;-71
2021/04/11 09:57:48;;;;;;;20.88;5.00;;;;;;;14.03;25.39;94515.44;5069144;28;20025;-71
2021/04/11 10:00:29;;;;;;;22.77;5.72;;;;;;;14.11;26.10;94511.19;5070606;28;20024;-72
2021/04/11 10:03:25;;;;;;;12.05;4.95;;;;;;;14.26;26.12;94512.53;5088890;28;20031;-71
2021/04/11 10:05:57;;;;;;;11.73;4.85;;;;;;;14.41;25.35;94505.88;5088848;28;20031;-71
2021/04/11 10:08:31;;;;;;;;;;;;;;;14.49;24.73;94502.41;5089309;28;20103;-71
2021/04/11 10:11:17;;;;;;;9.35;4.03;;;;;;;14.52;23.86;94507.09;5106226;28;20095;-70
2021/04/11 10:14:04;;;;;;;12.65;4.85;;;;;;;14.62;24.24;94509.44;5065689;28;20101;-70
2021/04/11 10:17:02;;;;;;;6.25;3.65;;;;;;;14.73;23.59;94509.88;5092880;28;20028;-71
2021/04/11 10:19:40;;;;;;;13.73;2.90;;;;;;;14.80;22.49;94506.69;5059285;28;20029;-71
2021/04/11 10:22:40;;;;;;;11.55;3.28;;;;;;;14.85;22.45;94503.81;5063720;28;20024;-71
2021/04/11 10:25:19;;;;;;;9.57;3.80;;;;;;;14.96;22.94;94512.28;5071789;28;20115;-71
2021/04/11 10:28:14;;;;;;;9.57;3.25;;;;;;;15.08;23.32;94500.84;5092780;28;20819;-71
2021/04/11 10:30:43;;;;;;;9.20;3.80;;;;;;;15.17;23.52;94504.28;5085173;28;20040;-71
2021/04/11 10:33:31;;;;;;;14.18;3.42;;;;;;;15.30;22.51;94508.59;5074393;28;20027;-70
2021/04/11 10:36:13;;;;;;;10.15;2.67;;;;;;;15.36;21.83;94499.22;5092719;28;20027;-71
2021/04/11 10:38:45;;;;;;;9.00;3.58;;;;;;;15.33;21.47;94491.06;5074519;28;20094;-71
2021/04/11 10:41:51;;;;;;;7.28;2.42;;;;;;;15.47;22.13;94499.66;5092457;28;20048;-71
2021/04/11 10:44:34;;;;;;;7.78;3.03;;;;;;;15.59;21.33;94493.53;5092450;28;20023;-71
2021/04/11 10:47:00;;;;;;;6.70;3.15;;;;;;;15.64;19.53;94487.97;5092265;28;20115;-71
2021/04/11 10:49:53;;;;;;;6.82;3.78;;;;;;;15.57;20.74;94493.06;5074044;28;20490;-73
2021/04/11 10:52:43;;;;;;;8.80;3.67;;;;;;;15.65;21.50;94492.22;5092713;28;20471;-68
2021/04/11 10:55:34;;;;;;;7.45;3.10;;;;;;;15.78;21.83;94483.13;5091958;28;20471;-68
2021/04/11 10:58:40;;;;;;;9.10;3.30;;;;;;;15.94;21.90;94479.81;5091409;28;20039;-69
2021/04/11 11:01:28;;;;;;;8.75;3.20;;;;;;;16.02;21.29;94484.34;5073954;28;20040;-68
2021/04/11 11:04:22;;;;;;;10.77;3.80;;;;;;;15.99;19.78;94482.28;5090998;28;20032;-69
2021/04/11 11:07:05;;;;;;;7.35;3.05;;;;;;;15.97;19.93;94485.31;5073626;28;20031;-69
2021/04/11 11:09:46;;;;;;;12.18;3.22;;;;;;;16.09;20.24;94479.19;5092163;28;20154;-69
2021/04/11 11:12:34;;;;;;;7.05;2.50;;;;;;;16.16;19.49;94474.06;5092160;28;20034;-69
2021/04/11 11:15:15;;;;;;;5.35;2.55;;;;;;;16.20;19.33;94469.59;5074481;28;20403;-69
2021/04/11 11:17:59;;;;;;;6.95;3.03;;;;;;;16.24;20.01;94461.63;5092598;28;20098;-68
2021/04/11 11:20:32;;;;;;;13.13;5.70;;;;;;;16.30;18.73;94462.97;5092610;28;20161;-67
2021/04/11 11:23:54;;;;;;;11.98;3.80;;;;;;;16.32;20.74;94470.72;5057756;28;20031;-67
2021/04/11 11:26:30;;;;;;;13.32;2.75;;;;;;;16.52;20.51;94459.06;5010249;28;20030;-67
2021/04/11 11:29:40;;;;;;;7.13;2.38;;;;;;;16.78;20.68;94463.34;4993607;28;20095;-68
2021/04/11 11:32:44;;;;;;;18.25;2.78;;;;;;;17.01;20.48;94448.31;5047667;28;20127;-68
2021/04/11 11:35:13;;;;;;;8.85;2.72;;;;;;;17.15;19.78;94447.16;5091885;28;20039;-68
2021/04/11 11:38:04;;;;;;;8.18;3.83;;;;;;;17.27;20.18;94438.28;5091823;28;20521;-68
2021/04/11 11:40:48;;;;;;;9.45;3.13;;;;;;;17.48;19.54;94438.09;5092011;28;20119;-68
2021/04/11 11:43:20;;;;;;;9.50;2.92;;;;;;;17.55;17.89;94432.91;5091887;28;20043;-68
2021/04/11 11:46:17;;;;;;;10.87;3.00;;;;;;;17.49;18.63;94426.97;5091804;28;20446;-69
2021/04/11 11:49:19;;;;;;;8.20;3.67;;;;;;;17.47;18.47;94423.84;5066279;28;21106;-68
2021/04/11 11:52:00;;;;;;;10.43;3.10;;;;;;;17.43;19.76;94421.03;5090742;28;20385;-69
2021/04/11 11:54:35;;;;;;;8.37;3.20;;;;;;;17.66;19.58;94420.50;5073538;28;20425;-68
2021/04/11 11:57:21;;;;;;;7.18;2.70;;;;;;;17.87;19.01;94419.53;5091658;28;20057;-69
2021/04/11 11:59:47;;;;;;;10.00;3.35;;;;;;;18.02;18.49;94413.38;5069292;28;20063;-69
2021/04/11 12:02:45;;;;;;;9.02;2.60;;;;;;;18.21;18.43;94408.06;5091526;28;20058;-67
2021/04/11 12:05:28;;;;;;;13.68;3.33;;;;;;;18.41;19.11;94408.19;5044035;28;20036;-68
2021/04/11 12:08:05;;;;;;;9.00;3.30;;;;;;;18.61;19.15;94412.50;5091525;28;20459;-68
2021/04/11 12:10:36;;;;;;;6.78;2.97;;;;;;;18.84;18.94;94409.19;5073266;28;20123;-68
2021/04/11 12:13:29;;;;;;;8.10;3.22;;;;;;;19.09;18.65;94400.84;5091163;28;20031;-68
2021/04/11 12:16:10;;;;;;;7.53;2.90;;;;;;;19.29;17.27;94402.44;5073325;28;20085;-68
2021/04/11 12:19:04;;;;;;;21.13;3.67;;;;;;;19.06;16.68;94401.56;5090519;28;20147;-68
2021/04/11 12:21:40;;;;;;;8.95;2.72;;;;;;;18.99;17.65;94394.06;5072935;28;20020;-67
2021/04/11 12:24:35;;;;;;;11.93;3.25;;;;;;;18.89;17.37;94384.63;5090878;28;20024;-68